Hebbronville, Texas
Current Conditions -  °F | °C
As of 12:35 AM on Friday 31 Oct 2014 (Local Time) from KHBV Reporting Station
Clear Clear  
Wind Chill: 69°   Ceiling: Unl
Heat Index: 69°   Visibility: 10mi
Dew Point: 65°   Wind: 3mph
Humidity: 88%   Direction: 100°E
Pressure: 30.11"   Gusts: NA
Location:  27.31°N, 98.68°W
Report Text: KHBV 310535Z AUTO 10003KT 10SM CLR 20/18 A3011 RMK AO2 T02030182 PWINO
Loading
Personal Weather Stations






























Interactive Weather Map
Tropical Storm Tracking
New forecast layout! Learn more

10-Day Weather Forecast

Advertisements
Track Severe Weather on mobile